Time;durP1;ratioP1;P1;durP2;ratioP2;P2;SDS_P1;SDS_P2;PMS_P1;PMS_P2;Temp;Humidity;BMP_temperature;BMP_pressure;BME280_temperature;BME280_humidity;BME280_pressure;Samples;Min_cycle;Max_cycle;Signal;HPM_P1;HPM_P2
2023/12/24 00:01:10;;;;;;;0.40;0.30;;;12.80;99.90;;;;;;5101943;28;20026;-79
2023/12/24 00:03:37;;;;;;;0.40;0.40;;;12.90;99.90;;;;;;5129911;27;20046;-80
2023/12/24 00:06:03;;;;;;;0.45;0.45;;;12.80;99.90;;;;;;5131982;27;20359;-79
2023/12/24 00:08:29;;;;;;;0.38;0.30;;;12.90;99.90;;;;;;5117452;27;20027;-79
2023/12/24 00:10:56;;;;;;;1.45;0.40;;;12.90;99.90;;;;;;5122955;27;20187;-79
2023/12/24 00:13:22;;;;;;;0.20;0.20;;;12.80;99.90;;;;;;5126698;27;20084;-77
2023/12/24 00:15:48;;;;;;;0.70;0.28;;;13.00;99.90;;;;;;5131723;28;20428;-78
2023/12/24 00:18:14;;;;;;;0.22;0.20;;;12.90;99.90;;;;;;5128648;28;20162;-80
2023/12/24 00:20:40;;;;;;;0.60;0.30;;;12.80;99.90;;;;;;5110857;28;20023;-79
2023/12/24 00:23:07;;;;;;;0.40;0.30;;;12.80;99.90;;;;;;5127104;28;20015;-78
2023/12/24 00:25:37;;;;;;;1.05;0.40;;;12.90;99.90;;;;;;5097424;28;20452;-78
2023/12/24 00:28:04;;;;;;;0.40;0.20;;;12.90;99.90;;;;;;5120314;28;20290;-77
2023/12/24 00:30:30;;;;;;;0.30;0.30;;;12.90;99.90;;;;;;5130702;28;20051;-78
2023/12/24 00:32:57;;;;;;;0.50;0.10;;;12.90;99.90;;;;;;5112985;28;20459;-78
2023/12/24 00:35:23;;;;;;;0.30;0.30;;;12.90;99.90;;;;;;5130483;28;20042;-78
2023/12/24 00:37:50;;;;;;;0.60;0.47;;;12.80;99.90;;;;;;5131358;28;20069;-79
2023/12/24 00:40:17;;;;;;;0.60;0.28;;;12.90;99.90;;;;;;5096004;28;20038;-80
2023/12/24 00:42:43;;;;;;;0.43;0.30;;;12.80;99.90;;;;;;5122591;27;20026;-79
2023/12/24 00:45:10;;;;;;;1.17;0.20;;;12.80;99.90;;;;;;5121614;27;20027;-79
2023/12/24 00:47:36;;;;;;;0.80;0.30;;;12.80;99.90;;;;;;5125018;27;20108;-79
2023/12/24 00:50:02;;;;;;;0.73;0.25;;;12.90;99.90;;;;;;5118046;27;20056;-78
2023/12/24 00:52:28;;;;;;;0.38;0.20;;;12.90;99.90;;;;;;5124752;27;20039;-79
2023/12/24 00:54:54;;;;;;;0.25;0.25;;;12.90;99.90;;;;;;5131866;27;20381;-79
2023/12/24 00:57:20;;;;;;;0.50;0.32;;;12.90;99.90;;;;;;5134608;27;20034;-78
2023/12/24 00:59:45;;;;;;;1.02;0.30;;;12.90;99.90;;;;;;5134963;27;20159;-78
2023/12/24 01:02:11;;;;;;;0.52;0.30;;;13.00;99.90;;;;;;5135044;27;20115;-79
2023/12/24 01:04:37;;;;;;;0.90;0.40;;;12.90;99.90;;;;;;5099004;27;20023;-78
2023/12/24 01:07:03;;;;;;;0.30;0.20;;;12.80;99.90;;;;;;5135364;27;20019;-79
2023/12/24 01:09:29;;;;;;;0.32;0.17;;;12.90;99.90;;;;;;5134292;27;20087;-80
2023/12/24 01:11:54;;;;;;;0.30;0.20;;;13.00;99.90;;;;;;5134494;27;20043;-78
2023/12/24 01:14:20;;;;;;;0.88;0.30;;;12.90;99.90;;;;;;5117179;27;20020;-80
2023/12/24 01:16:46;;;;;;;0.25;0.10;;;13.00;99.90;;;;;;5113967;28;20039;-81
2023/12/24 01:19:12;;;;;;;0.63;0.30;;;13.00;99.90;;;;;;5131402;27;20019;-78
2023/12/24 01:21:39;;;;;;;0.45;0.30;;;13.00;99.90;;;;;;5124285;27;20032;-79
2023/12/24 01:24:05;;;;;;;0.57;0.20;;;13.00;99.90;;;;;;5117474;27;20301;-80
2023/12/24 01:26:36;;;;;;;0.65;0.17;;;12.90;99.90;;;;;;5134643;27;20043;-78
2023/12/24 01:29:02;;;;;;;1.55;0.20;;;13.10;99.90;;;;;;5120817;27;20160;-79
2023/12/24 01:31:28;;;;;;;0.38;0.30;;;13.10;99.90;;;;;;5134154;27;20409;-80
2023/12/24 01:33:54;;;;;;;0.70;0.28;;;13.00;99.90;;;;;;5120363;27;20099;-79
2023/12/24 01:36:20;;;;;;;1.35;0.30;;;13.10;99.90;;;;;;5115968;27;20099;-81
2023/12/24 01:38:46;;;;;;;0.10;0.10;;;13.10;99.90;;;;;;5133857;27;20037;-79
2023/12/24 01:41:12;;;;;;;0.32;0.28;;;13.00;99.90;;;;;;5134237;27;20015;-79
2023/12/24 01:43:41;;;;;;;0.35;0.22;;;13.00;99.90;;;;;;5110210;28;20415;-78
2023/12/24 01:46:13;;;;;;;0.93;0.40;;;13.00;99.90;;;;;;5125722;27;20060;-79
2023/12/24 01:48:39;;;;;;;1.55;0.40;;;13.00;99.90;;;;;;5095976;28;20130;-79
2023/12/24 01:51:06;;;;;;;0.50;0.28;;;13.00;99.90;;;;;;5095244;28;20049;-78
2023/12/24 01:53:32;;;;;;;0.47;0.40;;;12.90;99.90;;;;;;5125650;27;20396;-79
2023/12/24 01:56:01;;;;;;;1.05;0.32;;;13.00;99.90;;;;;;5124639;27;20094;-78
2023/12/24 01:58:29;;;;;;;1.85;0.40;;;13.00;99.90;;;;;;5109885;28;20030;-79
2023/12/24 02:00:55;;;;;;;0.47;0.40;;;12.90;99.90;;;;;;5106713;27;20358;-79
2023/12/24 02:03:22;;;;;;;0.47;0.32;;;12.90;99.90;;;;;;5133604;27;20011;-79
2023/12/24 02:05:49;;;;;;;1.30;0.28;;;12.90;99.90;;;;;;5122290;27;20045;-79
2023/12/24 02:08:16;;;;;;;2.15;0.35;;;13.00;99.90;;;;;;5127204;27;20062;-78
2023/12/24 02:10:42;;;;;;;0.57;0.25;;;12.90;99.90;;;;;;5125694;27;20159;-79
2023/12/24 02:13:09;;;;;;;2.05;0.35;;;13.10;99.90;;;;;;5109920;28;20203;-79
2023/12/24 02:15:35;;;;;;;1.40;0.28;;;13.10;99.90;;;;;;5094570;28;20035;-79
2023/12/24 02:18:01;;;;;;;0.77;0.35;;;13.10;99.90;;;;;;5113223;27;20019;-79
2023/12/24 02:20:27;;;;;;;1.50;0.40;;;13.00;99.90;;;;;;5125088;27;20030;-79
2023/12/24 02:22:53;;;;;;;1.38;0.50;;;13.00;99.90;;;;;;5133674;27;20424;-79
2023/12/24 02:25:19;;;;;;;1.58;0.40;;;13.00;99.90;;;;;;5133571;27;20027;-79
2023/12/24 02:28:00;;;;;;;1.58;0.40;;;13.00;99.90;;;;;;5095577;28;20060;-79
2023/12/24 02:30:32;;;;;;;2.60;0.57;;;12.90;99.90;;;;;;5111964;27;20020;-79
2023/12/24 02:32:59;;;;;;;1.58;0.32;;;12.90;99.90;;;;;;5121994;27;20011;-79
2023/12/24 02:35:30;;;;;;;0.77;0.40;;;12.90;99.90;;;;;;5129732;27;20023;-82
2023/12/24 02:37:55;;;;;;;0.57;0.30;;;13.00;99.90;;;;;;5122578;27;20017;-79
2023/12/24 02:40:21;;;;;;;1.02;0.50;;;13.00;99.90;;;;;;5132853;27;20014;-78
2023/12/24 02:42:47;;;;;;;0.82;0.40;;;12.90;99.90;;;;;;5122362;27;20493;-80
2023/12/24 02:45:13;;;;;;;0.90;0.60;;;13.00;99.90;;;;;;5125954;27;20034;-79
2023/12/24 02:47:38;;;;;;;3.03;0.70;;;13.00;99.90;;;;;;5111660;28;20102;-80
2023/12/24 02:50:05;;;;;;;1.15;0.70;;;12.90;99.90;;;;;;5128198;27;20121;-80
2023/12/24 02:52:30;;;;;;;1.08;0.60;;;12.90;99.90;;;;;;5112993;27;20425;-80
2023/12/24 02:54:56;;;;;;;0.70;0.70;;;12.90;99.90;;;;;;5132142;27;20031;-79
2023/12/24 02:57:22;;;;;;;2.55;0.70;;;12.90;99.90;;;;;;5123118;27;20020;-80
2023/12/24 02:59:48;;;;;;;0.60;0.60;;;12.80;99.90;;;;;;5111389;28;20042;-80
2023/12/24 03:02:14;;;;;;;1.95;0.63;;;12.90;99.90;;;;;;5121631;27;20444;-79
2023/12/24 03:04:39;;;;;;;2.20;0.80;;;12.90;99.90;;;;;;5131809;27;20030;-80
2023/12/24 03:07:05;;;;;;;0.60;0.60;;;12.90;99.90;;;;;;5133283;27;20023;-80
2023/12/24 03:09:31;;;;;;;0.70;0.70;;;12.90;99.90;;;;;;5118370;27;20538;-80
2023/12/24 03:11:57;;;;;;;1.67;0.65;;;12.90;99.90;;;;;;5122862;27;20168;-80
2023/12/24 03:14:22;;;;;;;1.25;0.60;;;12.80;99.90;;;;;;5111656;28;20433;-79
2023/12/24 03:16:49;;;;;;;1.15;0.60;;;12.80;99.90;;;;;;5120294;27;20031;-80
2023/12/24 03:19:14;;;;;;;2.08;0.45;;;12.80;99.90;;;;;;5132082;27;20023;-80
2023/12/24 03:21:43;;;;;;;1.45;0.50;;;12.80;99.90;;;;;;5121647;27;20037;-80
2023/12/24 03:24:09;;;;;;;0.55;0.43;;;12.90;99.90;;;;;;5111784;28;20030;-79
2023/12/24 03:26:35;;;;;;;3.50;0.57;;;12.90;99.90;;;;;;5121659;27;20019;-80
2023/12/24 03:29:01;;;;;;;2.95;0.45;;;12.90;99.90;;;;;;5128130;27;20076;-79
2023/12/24 03:31:27;;;;;;;1.02;0.43;;;12.80;99.90;;;;;;5122310;27;20023;-81
2023/12/24 03:33:53;;;;;;;1.00;0.30;;;12.90;99.90;;;;;;5117677;27;20039;-80
2023/12/24 03:36:20;;;;;;;0.20;0.20;;;12.90;99.90;;;;;;5120870;27;20016;-80
2023/12/24 03:38:46;;;;;;;0.45;0.30;;;12.90;99.90;;;;;;5123618;27;20392;-80
2023/12/24 03:41:12;;;;;;;0.40;0.30;;;13.00;99.90;;;;;;5131887;27;20042;-80
2023/12/24 03:43:40;;;;;;;2.08;0.38;;;12.90;99.90;;;;;;5127045;27;20054;-80
2023/12/24 03:46:05;;;;;;;0.38;0.30;;;12.90;99.90;;;;;;5122563;27;20084;-79
2023/12/24 03:48:33;;;;;;;1.75;0.35;;;12.90;99.90;;;;;;5130996;27;20119;-79
2023/12/24 03:50:59;;;;;;;1.63;0.30;;;12.90;99.90;;;;;;5132041;27;20118;-80
2023/12/24 03:53:25;;;;;;;0.77;0.38;;;12.90;99.90;;;;;;5099016;27;20092;-80
2023/12/24 03:55:50;;;;;;;0.40;0.40;;;12.90;99.90;;;;;;5130998;27;20050;-80
2023/12/24 03:58:16;;;;;;;0.65;0.32;;;12.90;99.90;;;;;;5114184;27;20039;-80
2023/12/24 04:00:42;;;;;;;0.60;0.20;;;12.80;99.90;;;;;;5120950;27;20024;-80
2023/12/24 04:03:07;;;;;;;1.23;0.77;;;12.90;99.90;;;;;;5117287;27;20015;-80
2023/12/24 04:05:33;;;;;;;0.73;0.60;;;13.00;99.90;;;;;;5112383;27;20114;-80
2023/12/24 04:07:59;;;;;;;0.32;0.30;;;12.90;99.90;;;;;;5130758;27;20024;-80
2023/12/24 04:10:24;;;;;;;1.45;0.30;;;13.00;99.90;;;;;;5131183;27;20023;-79
2023/12/24 04:12:50;;;;;;;0.28;0.20;;;12.90;99.90;;;;;;5116781;27;20227;-78
2023/12/24 04:15:16;;;;;;;0.90;0.20;;;12.90;99.90;;;;;;5131136;28;20576;-79
2023/12/24 04:17:41;;;;;;;1.80;0.30;;;13.00;99.90;;;;;;5116018;28;20026;-80
2023/12/24 04:20:07;;;;;;;0.38;0.08;;;13.00;99.90;;;;;;5121010;28;20039;-79
2023/12/24 04:22:33;;;;;;;0.45;0.10;;;13.00;99.90;;;;;;5113454;28;20019;-81
2023/12/24 04:24:59;;;;;;;1.30;0.75;;;13.00;99.90;;;;;;5120459;28;20023;-82
2023/12/24 04:27:25;;;;;;;0.20;0.10;;;13.10;99.90;;;;;;5110637;28;20011;-80
2023/12/24 04:29:51;;;;;;;1.20;0.20;;;13.10;99.90;;;;;;5120729;28;20582;-79
2023/12/24 04:32:20;;;;;;;0.20;0.10;;;13.10;99.90;;;;;;5130980;28;20471;-79
2023/12/24 04:34:46;;;;;;;0.70;0.20;;;13.10;99.90;;;;;;5130481;28;20022;-79
2023/12/24 04:37:11;;;;;;;1.55;0.30;;;13.20;99.90;;;;;;5130947;28;20064;-78
2023/12/24 04:39:37;;;;;;;1.35;0.17;;;13.10;99.90;;;;;;5111870;28;20030;-79
2023/12/24 04:42:03;;;;;;;0.10;0.10;;;13.20;99.90;;;;;;5127059;28;20282;-79
2023/12/24 04:44:29;;;;;;;0.90;0.10;;;13.10;99.90;;;;;;5122099;28;20031;-79
2023/12/24 04:46:55;;;;;;;0.38;0.20;;;13.20;99.90;;;;;;5126037;28;20015;-79
2023/12/24 04:49:20;;;;;;;1.33;0.22;;;13.20;99.90;;;;;;5122015;28;20023;-80
2023/12/24 04:51:46;;;;;;;0.30;0.10;;;13.10;99.90;;;;;;5131025;28;20043;-80
2023/12/24 04:54:12;;;;;;;0.77;0.20;;;13.20;99.90;;;;;;5120757;27;20044;-79
2023/12/24 04:56:37;;;;;;;0.15;0.10;;;13.20;99.90;;;;;;5113707;28;20090;-79
2023/12/24 04:59:03;;;;;;;0.63;0.10;;;13.20;99.90;;;;;;5120907;28;20019;-80
2023/12/24 05:01:30;;;;;;;0.35;0.25;;;13.20;99.90;;;;;;5091749;28;20134;-78
2023/12/24 05:03:56;;;;;;;1.45;0.47;;;13.10;99.90;;;;;;5110040;28;20034;-80
2023/12/24 05:06:22;;;;;;;0.10;0.10;;;13.10;99.90;;;;;;5110320;28;20015;-80
2023/12/24 05:08:47;;;;;;;0.57;0.30;;;13.10;99.90;;;;;;5119625;28;20024;-79
2023/12/24 05:11:13;;;;;;;0.35;0.10;;;13.10;99.90;;;;;;5130860;28;20080;-78
2023/12/24 05:13:39;;;;;;;0.45;0.20;;;13.10;99.90;;;;;;5120102;28;20115;-80
2023/12/24 05:16:05;;;;;;;0.65;0.17;;;13.10;99.90;;;;;;5124378;28;20047;-79
2023/12/24 05:18:33;;;;;;;0.30;0.20;;;13.10;99.90;;;;;;5110286;28;20348;-80
2023/12/24 05:20:59;;;;;;;0.20;0.20;;;13.00;99.90;;;;;;5092190;28;20042;-79
2023/12/24 05:23:26;;;;;;;0.85;0.50;;;13.00;99.90;;;;;;5092555;28;20020;-79
2023/12/24 05:25:52;;;;;;;0.20;0.20;;;13.00;99.90;;;;;;5114037;28;20094;-80
2023/12/24 05:28:17;;;;;;;0.77;0.35;;;13.10;99.90;;;;;;5112792;28;20015;-80
2023/12/24 05:30:44;;;;;;;0.20;0.10;;;13.10;99.90;;;;;;5115803;28;20038;-79
2023/12/24 05:33:10;;;;;;;2.90;0.30;;;13.10;99.90;;;;;;5114371;28;20023;-79
2023/12/24 05:35:36;;;;;;;0.20;0.10;;;13.00;99.90;;;;;;5094914;28;20031;-82
2023/12/24 05:38:02;;;;;;;0.15;0.10;;;13.00;99.90;;;;;;5125494;27;20432;-81
2023/12/24 05:40:28;;;;;;;0.35;0.10;;;13.10;99.90;;;;;;5101789;27;20019;-80
2023/12/24 05:42:54;;;;;;;0.90;0.10;;;13.00;99.90;;;;;;5122167;27;20016;-79
2023/12/24 05:45:20;;;;;;;0.55;0.20;;;13.10;99.90;;;;;;5113486;28;20153;-79
2023/12/24 05:47:45;;;;;;;0.85;0.10;;;13.10;99.90;;;;;;5124666;27;20015;-79
2023/12/24 05:50:12;;;;;;;0.10;0.10;;;13.10;99.90;;;;;;5097791;28;20034;-77
2023/12/24 05:52:39;;;;;;;0.45;0.45;;;13.20;99.90;;;;;;5106017;27;20489;-80
2023/12/24 05:55:07;;;;;;;0.15;0.15;;;13.20;99.90;;;;;;5133284;27;20046;-79
2023/12/24 05:57:34;;;;;;;0.10;0.10;;;13.10;99.90;;;;;;5123010;27;20020;-79
2023/12/24 06:00:00;;;;;;;0.00;0.00;;;13.20;99.90;;;;;;5130609;27;20371;-77
2023/12/24 06:02:26;;;;;;;1.00;0.20;;;13.10;99.90;;;;;;5133636;27;20019;-78
2023/12/24 06:04:52;;;;;;;0.45;0.15;;;13.20;99.90;;;;;;5114481;27;20023;-80
2023/12/24 06:07:17;;;;;;;0.00;0.00;;;13.10;99.90;;;;;;5113394;28;20122;-79
2023/12/24 06:09:43;;;;;;;0.30;0.13;;;13.10;99.90;;;;;;5117090;27;20104;-79
2023/12/24 06:12:09;;;;;;;0.13;0.00;;;13.10;99.90;;;;;;5133744;27;20015;-79
2023/12/24 06:14:35;;;;;;;0.10;0.10;;;13.00;99.90;;;;;;5114996;27;20053;-78
2023/12/24 06:17:00;;;;;;;0.10;0.10;;;13.10;99.90;;;;;;5105387;27;20076;-81
2023/12/24 06:19:26;;;;;;;0.55;0.00;;;13.10;99.90;;;;;;5132964;27;20447;-78
2023/12/24 06:21:52;;;;;;;0.35;0.08;;;13.10;99.90;;;;;;5132753;27;20015;-79
2023/12/24 06:24:20;;;;;;;0.10;0.10;;;13.10;99.90;;;;;;5132420;27;20123;-77
2023/12/24 06:26:51;;;;;;;0.00;0.00;;;13.10;99.90;;;;;;5114953;27;20026;-78
2023/12/24 06:29:17;;;;;;;0.65;0.00;;;13.00;99.90;;;;;;5122172;27;20035;-78
2023/12/24 06:31:43;;;;;;;0.10;0.00;;;13.10;99.90;;;;;;5131817;27;20122;-80
2023/12/24 06:34:09;;;;;;;0.10;0.10;;;13.00;99.90;;;;;;5124376;27;20063;-78
2023/12/24 06:36:35;;;;;;;0.00;0.00;;;13.10;99.90;;;;;;5137057;27;20493;-79
2023/12/24 06:39:01;;;;;;;0.10;0.10;;;13.10;99.90;;;;;;5139378;27;20027;-79
2023/12/24 06:41:27;;;;;;;0.50;0.20;;;13.00;99.90;;;;;;5137249;27;20367;-79
2023/12/24 06:43:52;;;;;;;0.55;0.10;;;13.10;99.90;;;;;;5132688;27;20029;-79
2023/12/24 06:46:18;;;;;;;0.10;0.00;;;13.10;99.90;;;;;;5133184;27;20057;-78
2023/12/24 06:48:44;;;;;;;0.00;0.00;;;13.10;99.90;;;;;;5112477;28;20015;-79
2023/12/24 06:51:10;;;;;;;0.20;0.20;;;13.10;99.90;;;;;;5107542;27;20035;-79
2023/12/24 06:53:36;;;;;;;0.28;0.10;;;13.10;99.90;;;;;;5117441;27;20050;-79
2023/12/24 06:56:02;;;;;;;0.00;0.00;;;13.10;99.90;;;;;;5120105;27;20407;-79
2023/12/24 06:58:27;;;;;;;0.30;0.10;;;13.20;99.90;;;;;;5117503;27;20317;-79
2023/12/24 07:00:53;;;;;;;0.35;0.10;;;13.00;99.90;;;;;;5132067;27;20034;-79
2023/12/24 07:03:19;;;;;;;0.85;0.10;;;13.00;99.90;;;;;;5132412;27;20035;-79
2023/12/24 07:05:45;;;;;;;0.00;0.00;;;13.10;99.90;;;;;;5132380;27;20473;-78
2023/12/24 07:08:10;;;;;;;0.47;0.10;;;13.10;99.90;;;;;;5113506;27;20027;-78
2023/12/24 07:10:36;;;;;;;1.33;0.20;;;13.10;99.90;;;;;;5112051;28;20022;-78
2023/12/24 07:13:02;;;;;;;0.15;0.10;;;13.10;99.90;;;;;;5116365;27;20015;-79
2023/12/24 07:15:31;;;;;;;0.28;0.05;;;13.00;99.90;;;;;;5132459;27;20423;-78
2023/12/24 07:17:57;;;;;;;0.10;0.10;;;13.00;99.90;;;;;;5125523;27;20073;-77
2023/12/24 07:20:23;;;;;;;0.10;0.05;;;13.00;99.90;;;;;;5124217;27;20031;-78
2023/12/24 07:22:49;;;;;;;0.10;0.00;;;13.10;99.90;;;;;;5096344;27;20020;-79
2023/12/24 07:25:15;;;;;;;0.00;0.00;;;13.00;99.90;;;;;;5132154;27;20068;-79
2023/12/24 07:27:44;;;;;;;0.28;0.10;;;13.00;99.90;;;;;;5131756;27;20444;-79
2023/12/24 07:30:10;;;;;;;0.10;0.00;;;13.00;99.90;;;;;;5132087;27;20037;-79
2023/12/24 07:32:36;;;;;;;1.35;0.10;;;13.00;99.90;;;;;;5107854;28;20018;-78
2023/12/24 07:35:02;;;;;;;0.10;0.10;;;13.10;99.90;;;;;;5106158;27;20258;-79
2023/12/24 07:37:28;;;;;;;0.20;0.10;;;13.10;99.90;;;;;;5111860;27;20027;-78
2023/12/24 07:39:53;;;;;;;0.10;0.10;;;13.00;99.90;;;;;;5125404;27;20027;-78
2023/12/24 07:42:19;;;;;;;0.80;0.00;;;13.00;99.90;;;;;;5132005;27;20053;-78
2023/12/24 07:44:47;;;;;;;0.10;0.10;;;13.00;99.90;;;;;;5131241;27;20475;-81
2023/12/24 07:47:12;;;;;;;0.60;0.10;;;13.00;99.90;;;;;;5118733;27;20124;-79
2023/12/24 07:49:38;;;;;;;0.40;0.20;;;13.00;99.90;;;;;;5113663;27;20158;-79
2023/12/24 07:52:04;;;;;;;0.10;0.10;;;12.90;99.90;;;;;;5116652;27;20023;-79
2023/12/24 07:54:30;;;;;;;0.08;0.08;;;13.00;99.90;;;;;;5118235;27;20413;-78
2023/12/24 07:56:55;;;;;;;0.90;0.30;;;12.90;99.90;;;;;;5129865;27;20033;-79
2023/12/24 07:59:21;;;;;;;0.73;0.10;;;12.90;99.90;;;;;;5132433;27;20030;-79
2023/12/24 08:01:47;;;;;;;0.22;0.08;;;12.90;99.90;;;;;;5131386;27;20051;-79
2023/12/24 08:04:12;;;;;;;0.00;0.00;;;13.10;99.90;;;;;;5113800;27;20019;-78
2023/12/24 08:06:38;;;;;;;0.28;0.20;;;13.00;99.90;;;;;;5113608;27;20028;-78
2023/12/24 08:09:03;;;;;;;0.15;0.10;;;13.10;99.90;;;;;;5131408;27;20023;-77
2023/12/24 08:11:29;;;;;;;1.45;0.25;;;13.00;99.90;;;;;;5131578;27;20447;-77
2023/12/24 08:13:55;;;;;;;0.68;0.20;;;13.10;99.90;;;;;;5131354;27;20094;-78
2023/12/24 08:16:20;;;;;;;0.65;0.30;;;13.10;99.90;;;;;;5113675;28;20039;-78
2023/12/24 08:18:46;;;;;;;1.33;0.40;;;13.10;99.90;;;;;;5131805;28;20015;-80
2023/12/24 08:21:12;;;;;;;2.58;0.22;;;13.20;99.90;;;;;;5131785;28;20046;-78
2023/12/24 08:23:38;;;;;;;0.30;0.15;;;13.00;99.90;;;;;;5132308;28;20023;-78
2023/12/24 08:26:04;;;;;;;0.70;0.20;;;13.10;99.90;;;;;;5131350;28;20034;-80
2023/12/24 08:28:30;;;;;;;0.63;0.20;;;13.00;99.90;;;;;;5131949;28;20023;-77
2023/12/24 08:30:55;;;;;;;0.82;0.20;;;13.10;99.90;;;;;;5131212;28;20031;-78
2023/12/24 08:33:21;;;;;;;1.08;0.25;;;13.10;99.90;;;;;;5131432;28;20321;-78
2023/12/24 08:35:47;;;;;;;1.35;0.00;;;13.00;99.90;;;;;;5112620;28;20059;-80
2023/12/24 08:38:12;;;;;;;0.75;0.10;;;13.10;99.90;;;;;;5130814;28;20023;-77
2023/12/24 08:40:38;;;;;;;0.17;0.17;;;13.00;99.90;;;;;;5131149;28;20035;-76
2023/12/24 08:43:04;;;;;;;0.08;0.00;;;12.90;99.90;;;;;;5130598;28;20046;-78
2023/12/24 08:45:30;;;;;;;1.10;0.30;;;12.90;99.90;;;;;;5131423;28;20034;-78
2023/12/24 08:47:55;;;;;;;0.88;0.20;;;13.00;99.90;;;;;;5130645;28;20048;-79
2023/12/24 08:50:21;;;;;;;0.77;0.30;;;13.00;99.90;;;;;;5131045;28;20047;-77
2023/12/24 08:52:47;;;;;;;0.10;0.10;;;12.90;99.90;;;;;;5131015;27;20046;-80
2023/12/24 08:55:15;;;;;;;0.40;0.20;;;12.90;99.90;;;;;;5130648;28;20027;-80
2023/12/24 08:57:41;;;;;;;0.20;0.10;;;12.90;99.90;;;;;;5131070;28;20353;-78
2023/12/24 09:00:11;;;;;;;0.28;0.10;;;12.90;99.90;;;;;;5130688;28;20050;-78
2023/12/24 09:02:38;;;;;;;0.10;0.10;;;13.00;99.90;;;;;;5131470;27;20031;-79
2023/12/24 09:05:07;;;;;;;1.00;0.17;;;12.90;99.90;;;;;;5135106;27;20035;-81
2023/12/24 09:07:34;;;;;;;0.10;0.10;;;13.00;99.90;;;;;;5135291;27;20015;-83
2023/12/24 09:10:01;;;;;;;0.45;0.30;;;12.90;99.90;;;;;;5134697;27;20052;-81
2023/12/24 09:12:27;;;;;;;0.28;0.10;;;12.90;99.90;;;;;;5117243;27;20049;-81
2023/12/24 09:14:52;;;;;;;0.77;0.30;;;12.80;99.90;;;;;;5114856;27;20027;-81
2023/12/24 09:17:18;;;;;;;0.35;0.30;;;12.80;99.90;;;;;;5126557;27;20098;-81
2023/12/24 09:19:44;;;;;;;1.27;0.20;;;12.90;99.90;;;;;;5114898;27;20180;-80
2023/12/24 09:22:10;;;;;;;1.73;0.20;;;12.90;99.90;;;;;;5111045;27;20184;-80
2023/12/24 09:24:35;;;;;;;0.52;0.22;;;12.90;99.90;;;;;;5097036;28;20072;-81
2023/12/24 09:27:01;;;;;;;1.25;0.32;;;13.00;99.90;;;;;;5117012;27;20138;-80
2023/12/24 09:29:27;;;;;;;0.47;0.30;;;12.80;99.90;;;;;;5115739;27;20030;-80
2023/12/24 09:31:53;;;;;;;1.15;0.40;;;12.90;99.90;;;;;;5134308;27;20112;-82
2023/12/24 09:34:18;;;;;;;0.65;0.45;;;12.90;99.90;;;;;;5120181;27;20033;-79
2023/12/24 09:36:44;;;;;;;0.30;0.30;;;12.90;99.90;;;;;;5116020;27;20118;-80
2023/12/24 09:39:10;;;;;;;0.20;0.20;;;12.90;99.90;;;;;;5120126;27;20103;-80
2023/12/24 09:41:39;;;;;;;0.15;0.10;;;12.90;99.90;;;;;;5115836;27;20500;-81
2023/12/24 09:44:08;;;;;;;0.45;0.10;;;13.00;99.90;;;;;;5113845;28;20089;-79
2023/12/24 09:46:34;;;;;;;0.50;0.30;;;13.00;99.90;;;;;;5102339;27;20043;-80
2023/12/24 09:49:00;;;;;;;0.82;0.22;;;13.00;99.90;;;;;;5120241;27;20050;-80
2023/12/24 09:51:26;;;;;;;0.80;0.35;;;13.00;99.90;;;;;;5127972;27;20073;-79
2023/12/24 09:53:54;;;;;;;0.50;0.30;;;13.00;99.90;;;;;;5126700;27;20421;-82
2023/12/24 09:56:20;;;;;;;0.45;0.30;;;12.90;99.90;;;;;;5127279;27;20035;-81
2023/12/24 09:58:46;;;;;;;0.28;0.25;;;13.00;99.90;;;;;;5115030;27;20040;-80
2023/12/24 10:01:12;;;;;;;0.73;0.50;;;13.00;99.90;;;;;;5136225;27;20164;-78
2023/12/24 10:03:38;;;;;;;1.15;0.30;;;13.10;99.90;;;;;;5142863;27;20023;-82
2023/12/24 10:06:08;;;;;;;1.38;0.30;;;13.10;99.90;;;;;;5142527;27;20098;-79
2023/12/24 10:08:35;;;;;;;0.28;0.17;;;13.00;99.90;;;;;;5144132;27;20011;-79
2023/12/24 10:11:15;;;;;;;0.50;0.30;;;13.10;99.90;;;;;;5140752;27;20036;-81
2023/12/24 10:13:44;;;;;;;0.73;0.52;;;13.10;99.90;;;;;;5136433;27;20031;-82
2023/12/24 10:16:10;;;;;;;1.58;0.20;;;13.10;99.90;;;;;;5128535;27;20079;-79
2023/12/24 10:18:36;;;;;;;0.10;0.10;;;13.10;99.90;;;;;;5142894;27;20054;-79
2023/12/24 10:21:08;;;;;;;1.20;0.28;;;13.10;99.90;;;;;;5134362;27;20440;-80
2023/12/24 10:23:34;;;;;;;0.27;0.27;;;13.10;99.90;;;;;;5120824;27;20011;-80
2023/12/24 10:26:08;;;;;;;1.75;0.65;;;13.10;99.90;;;;;;5134659;27;20463;-79
2023/12/24 10:28:44;;;;;;;0.52;0.15;;;13.10;99.90;;;;;;5129378;27;20433;-80
2023/12/24 10:31:10;;;;;;;0.77;0.20;;;13.10;99.90;;;;;;5115944;28;20031;-83
2023/12/24 10:33:40;;;;;;;0.20;0.20;;;13.10;99.90;;;;;;5135918;27;20015;-82
2023/12/24 10:36:06;;;;;;;0.85;0.30;;;13.10;99.90;;;;;;5122537;27;20039;-82
2023/12/24 10:38:34;;;;;;;0.90;0.20;;;13.10;99.90;;;;;;5115858;27;20034;-81
2023/12/24 10:41:00;;;;;;;0.47;0.38;;;13.20;99.90;;;;;;5133529;27;20034;-83
2023/12/24 10:43:26;;;;;;;1.30;0.30;;;13.20;99.90;;;;;;5114741;28;20104;-82
2023/12/24 10:45:55;;;;;;;4.63;0.30;;;13.20;99.90;;;;;;5129746;27;20065;-92
2023/12/24 10:48:23;;;;;;;0.93;0.40;;;13.20;99.90;;;;;;5134840;27;20019;-82
2023/12/24 10:50:50;;;;;;;0.30;0.30;;;13.10;99.90;;;;;;5119241;27;20019;-81
2023/12/24 10:53:16;;;;;;;2.40;0.70;;;13.10;99.90;;;;;;5113849;27;20716;-80
2023/12/24 10:55:51;;;;;;;3.13;0.47;;;13.20;99.90;;;;;;5103039;28;20028;-81
2023/12/24 10:58:42;;;;;;;2.55;0.50;;;13.20;99.90;;;;;;5112838;28;20039;-81
2023/12/24 11:01:09;;;;;;;0.60;0.50;;;13.20;99.90;;;;;;5112043;27;20015;-81
2023/12/24 11:03:48;;;;;;;0.40;0.40;;;13.20;99.90;;;;;;5094064;28;20129;-81
2023/12/24 11:06:49;;;;;;;2.30;0.47;;;13.20;99.90;;;;;;5120638;27;20019;-83
2023/12/24 11:09:15;;;;;;;1.15;0.75;;;13.20;99.90;;;;;;5049232;28;20087;-81
2023/12/24 11:12:06;;;;;;;1.48;1.30;;;13.20;99.90;;;;;;5112809;27;20134;-80
2023/12/24 11:14:45;;;;;;;1.33;0.95;;;13.10;99.90;;;;;;5118017;27;20119;-83
2023/12/24 11:17:49;;;;;;;0.90;0.60;;;13.10;99.90;;;;;;5118424;27;20496;-84
2023/12/24 11:20:18;;;;;;;5.25;2.30;;;13.10;99.90;;;;;;5061928;28;20024;-81
2023/12/24 11:23:02;;;;;;;1.00;0.68;;;13.10;99.90;;;;;;5118248;27;20023;-80
2023/12/24 11:25:42;;;;;;;4.88;2.38;;;13.00;99.90;;;;;;5124788;27;20055;-80
2023/12/24 11:28:12;;;;;;;2.78;1.92;;;13.00;99.90;;;;;;5100508;27;20076;-80
2023/12/24 11:30:58;;;;;;;2.58;1.02;;;13.00;99.90;;;;;;5121388;27;20070;-78
2023/12/24 11:33:36;;;;;;;2.30;1.35;;;12.90;99.90;;;;;;5097114;27;20028;-79
2023/12/24 11:36:08;;;;;;;1.80;1.38;;;12.90;99.90;;;;;;5110787;28;20153;-78
2023/12/24 11:38:34;;;;;;;;;;;12.90;99.90;;;;;;5112574;28;20023;-79
2023/12/24 11:41:17;;;;;;;2.72;1.58;;;12.80;99.90;;;;;;5110497;28;19903;-80
2023/12/24 11:43:52;;;;;;;3.05;1.10;;;12.80;99.90;;;;;;5124459;27;20016;-79
2023/12/24 11:46:18;;;;;;;3.88;2.05;;;12.80;99.90;;;;;;5122600;27;20019;-79
2023/12/24 11:48:44;;;;;;;3.20;2.00;;;12.70;99.90;;;;;;5112617;27;20382;-79
2023/12/24 11:51:11;;;;;;;5.68;2.33;;;12.70;99.90;;;;;;5130765;27;20059;-81
2023/12/24 11:53:38;;;;;;;2.35;1.15;;;12.70;99.90;;;;;;5130655;27;20088;-81
2023/12/24 11:56:12;;;;;;;1.65;1.00;;;12.60;99.90;;;;;;5131016;27;20043;-82
2023/12/24 11:58:58;;;;;;;3.40;1.10;;;12.60;99.90;;;;;;5110940;28;20023;-79
2023/12/24 12:01:26;;;;;;;2.30;1.00;;;12.50;99.90;;;;;;5114231;28;20019;-80
2023/12/24 12:04:00;;;;;;;3.90;0.90;;;12.50;99.90;;;;;;5112681;27;20068;-80
2023/12/24 12:06:29;;;;;;;5.75;1.70;;;12.50;99.90;;;;;;5130522;27;20016;-80
2023/12/24 12:08:58;;;;;;;9.23;2.45;;;12.50;99.90;;;;;;5131591;27;20529;-81
2023/12/24 12:11:23;;;;;;;9.10;2.30;;;12.40;99.90;;;;;;5129367;27;20351;-79
2023/12/24 12:13:49;;;;;;;5.78;1.40;;;12.30;99.90;;;;;;5131089;27;20015;-79
2023/12/24 12:16:15;;;;;;;5.18;1.70;;;12.30;99.90;;;;;;5130466;27;20116;-80
2023/12/24 12:18:41;;;;;;;8.20;1.40;;;12.30;99.90;;;;;;5130865;28;20129;-79
2023/12/24 12:21:10;;;;;;;5.63;1.70;;;12.20;99.90;;;;;;5129982;28;20505;-79
2023/12/24 12:23:40;;;;;;;7.88;2.10;;;12.30;99.90;;;;;;5130218;28;20082;-79
2023/12/24 12:26:06;;;;;;;8.48;1.95;;;12.20;99.90;;;;;;5130721;28;20023;-79
2023/12/24 12:28:33;;;;;;;7.93;1.92;;;12.30;99.90;;;;;;5111630;28;20351;-79
2023/12/24 12:30:59;;;;;;;7.15;2.00;;;12.30;99.90;;;;;;5130532;28;20057;-80
2023/12/24 12:33:25;;;;;;;13.98;2.03;;;12.30;99.90;;;;;;5093488;28;20427;-81
2023/12/24 12:35:51;;;;;;;7.43;1.77;;;12.30;99.90;;;;;;5110079;28;20051;-81
2023/12/24 12:38:17;;;;;;;8.05;2.08;;;12.30;99.90;;;;;;5124429;27;20104;-79
2023/12/24 12:40:42;;;;;;;7.82;1.90;;;12.30;99.90;;;;;;5114379;28;20043;-79
2023/12/24 12:43:08;;;;;;;9.27;1.90;;;12.30;99.90;;;;;;5132368;27;20011;-79
2023/12/24 12:45:34;;;;;;;7.82;1.60;;;12.30;99.90;;;;;;5135201;27;20026;-80
2023/12/24 12:48:00;;;;;;;7.45;1.90;;;12.30;99.90;;;;;;5102296;27;20030;-80